Wilson Norfolk — 9HA2466 — position and weather

sailwx.info

Track history (hours):
 
Tides and Currents Weather Stations Pressure Air Temp Water Temp Dewpoint Dewpoint Depression Visibility Wind Speed Wind Dir Waves Ship Positions

Wilson Norfolk

Last reported at 2015-Apr-26 15:30 UTC. Time now 2015-Apr-27 01:48 UTC.
Position N 66°46' E 013°16'.

Length 123 m; draft 7.6 m.

Type: Ship. MMSI: 248678000.

Date/timePositionNaut miles runAvg speedWind from/ knotsBaromVisibWave heightAir tempDewpointWater temp
2015-Apr-26 15:30N 66°46' E 013°16'1312.4
2015-Apr-26 14:26N 66°34' E 013°05'1010.8
2015-Apr-26 13:33N 66°25' E 012°59'1111.6
2015-Apr-26 12:33N 66°17' E 012°39'10 9.5
2015-Apr-26 11:33N 66°17' E 012°15'  
2015-Apr-23 22:14N 59°11' W 005°34'2211.8
2015-Apr-23 20:24N 58°50' W 005°46'1011.8
2015-Apr-23 19:33N 58°41' W 005°51'1212.1
2015-Apr-23 18:33N 58°29' W 005°56'1211.9
2015-Apr-23 17:33N 58°18' W 006°03'1212.2
2015-Apr-23 16:33N 58°06' W 006°09'13412.1
2015-Apr-23 05:31N 55°55' W 007°00'1414.6
2015-Apr-23 04:33N 55°44' W 006°46'1515.4
2015-Apr-23 03:33N 55°33' W 006°25'1414.1
2015-Apr-23 02:33N 55°25' W 006°05'1312.5
2015-Apr-23 01:33N 55°16' W 005°51'1111.4
2015-Apr-23 00:33N 55°05' W 005°43'1111.1
2015-Apr-22 23:33N 54°55' W 005°35'1110.7
2015-Apr-22 22:34N 54°45' W 005°27'1010.4
2015-Apr-22 21:33N 54°35' W 005°23'1211.7
2015-Apr-22 20:33N 54°24' W 005°20'1212.4
2015-Apr-22 19:33N 54°11' W 005°22'1712.2
2015-Apr-22 18:09N 53°54' W 005°25'711.9
2015-Apr-22 17:33N 53°47' W 005°26'1211.6
2015-Apr-22 16:33N 53°35' W 005°28'1211.0
2015-Apr-22 15:30N 53°24' W 005°30'2110.8
2015-Apr-22 13:33N 53°03' W 005°34'1312.3
2015-Apr-22 12:27N 52°50' W 005°37'1313.8
2015-Apr-22 11:29N 52°36' W 005°39'1314.3
2015-Apr-22 10:33N 52°23' W 005°41'1414.2
2015-Apr-22 09:33N 52°09' W 005°43'  
2015-Apr-19 12:13N 39°19' W 009°51'711.1
2015-Apr-19 11:33N 39°11' W 009°51'1111.1
2015-Apr-19 10:33N 39°00' W 009°51'1111.2
2015-Apr-19 09:33N 38°49' W 009°51'1110.9
2015-Apr-19 08:33N 38°38' W 009°50'1110.9
2015-Apr-19 07:33N 38°28' W 009°47'1111.4
2015-Apr-19 06:33N 38°17' W 009°44'2311.3
2015-Apr-19 04:33N 37°54' W 009°37'1110.6
2015-Apr-19 03:31N 37°44' W 009°35'  
Track history (hours):
 
Tides and Currents Weather Stations Pressure Air Temp Water Temp Dewpoint Dewpoint Depression Visibility Wind Speed Wind Dir Waves Ship Positions

Wilson Norfolk

Last reported at 2015-Apr-26 15:30 UTC. Time now 2015-Apr-27 01:48 UTC.
Position N 66°46' E 013°16'.

Length 123 m; draft 7.6 m.

Type: Ship. MMSI: 248678000.

Date/timePositionNaut miles runAvg speedWind from/ knotsBaromVisibWave heightAir tempDewpointWater temp
2015-Apr-26 15:30N 66°46' E 013°16'1312.4
2015-Apr-26 14:26N 66°34' E 013°05'1010.8
2015-Apr-26 13:33N 66°25' E 012°59'1111.6
2015-Apr-26 12:33N 66°17' E 012°39'10 9.5
2015-Apr-26 11:33N 66°17' E 012°15'  
2015-Apr-23 22:14N 59°11' W 005°34'2211.8
2015-Apr-23 20:24N 58°50' W 005°46'1011.8
2015-Apr-23 19:33N 58°41' W 005°51'1212.1
2015-Apr-23 18:33N 58°29' W 005°56'1211.9
2015-Apr-23 17:33N 58°18' W 006°03'1212.2
2015-Apr-23 16:33N 58°06' W 006°09'13412.1
2015-Apr-23 05:31N 55°55' W 007°00'1414.6
2015-Apr-23 04:33N 55°44' W 006°46'1515.4
2015-Apr-23 03:33N 55°33' W 006°25'1414.1
2015-Apr-23 02:33N 55°25' W 006°05'1312.5
2015-Apr-23 01:33N 55°16' W 005°51'1111.4
2015-Apr-23 00:33N 55°05' W 005°43'1111.1
2015-Apr-22 23:33N 54°55' W 005°35'1110.7
2015-Apr-22 22:34N 54°45' W 005°27'1010.4
2015-Apr-22 21:33N 54°35' W 005°23'1211.7
2015-Apr-22 20:33N 54°24' W 005°20'1212.4
2015-Apr-22 19:33N 54°11' W 005°22'1712.2
2015-Apr-22 18:09N 53°54' W 005°25'711.9
2015-Apr-22 17:33N 53°47' W 005°26'1211.6
2015-Apr-22 16:33N 53°35' W 005°28'1211.0
2015-Apr-22 15:30N 53°24' W 005°30'2110.8
2015-Apr-22 13:33N 53°03' W 005°34'1312.3
2015-Apr-22 12:27N 52°50' W 005°37'1313.8
2015-Apr-22 11:29N 52°36' W 005°39'1314.3
2015-Apr-22 10:33N 52°23' W 005°41'1414.2
2015-Apr-22 09:33N 52°09' W 005°43'  
2015-Apr-19 12:13N 39°19' W 009°51'711.1
2015-Apr-19 11:33N 39°11' W 009°51'1111.1
2015-Apr-19 10:33N 39°00' W 009°51'1111.2
2015-Apr-19 09:33N 38°49' W 009°51'1110.9
2015-Apr-19 08:33N 38°38' W 009°50'1110.9
2015-Apr-19 07:33N 38°28' W 009°47'1111.4
2015-Apr-19 06:33N 38°17' W 009°44'2311.3
2015-Apr-19 04:33N 37°54' W 009°37'1110.6
2015-Apr-19 03:31N 37°44' W 009°35'  

Dump ship's entire track history